sensor_id;sensor_type;location;lat;lon;timestamp;P1;durP1;ratioP1;P2;durP2;ratioP2
3841;SDS011;1936;47.074;15.336;2022-12-05T00:01:24;10.05;;;8.27;;
3841;SDS011;1936;47.074;15.336;2022-12-05T00:03:29;10.10;;;7.07;;
3841;SDS011;1936;47.074;15.336;2022-12-05T00:05:32;11.13;;;8.60;;
3841;SDS011;1936;47.074;15.336;2022-12-05T00:07:36;8.45;;;7.03;;
3841;SDS011;1936;47.074;15.336;2022-12-05T00:09:40;8.65;;;7.18;;
3841;SDS011;1936;47.074;15.336;2022-12-05T00:11:44;9.63;;;7.78;;
3841;SDS011;1936;47.074;15.336;2022-12-05T00:13:49;12.10;;;8.80;;
3841;SDS011;1936;47.074;15.336;2022-12-05T00:15:53;11.63;;;8.88;;
3841;SDS011;1936;47.074;15.336;2022-12-05T00:17:56;15.48;;;9.00;;
3841;SDS011;1936;47.074;15.336;2022-12-05T00:20:00;11.35;;;9.55;;
3841;SDS011;1936;47.074;15.336;2022-12-05T00:22:03;12.32;;;8.90;;
3841;SDS011;1936;47.074;15.336;2022-12-05T00:24:07;15.27;;;11.68;;
3841;SDS011;1936;47.074;15.336;2022-12-05T00:26:14;16.88;;;11.63;;
3841;SDS011;1936;47.074;15.336;2022-12-05T00:28:18;18.88;;;11.23;;
3841;SDS011;1936;47.074;15.336;2022-12-05T00:30:21;15.73;;;11.35;;
3841;SDS011;1936;47.074;15.336;2022-12-05T00:32:25;16.95;;;12.10;;
3841;SDS011;1936;47.074;15.336;2022-12-05T00:34:30;16.90;;;12.25;;
3841;SDS011;1936;47.074;15.336;2022-12-05T00:36:34;16.60;;;12.55;;
3841;SDS011;1936;47.074;15.336;2022-12-05T00:38:38;20.67;;;14.02;;
3841;SDS011;1936;47.074;15.336;2022-12-05T00:40:42;22.92;;;12.77;;
3841;SDS011;1936;47.074;15.336;2022-12-05T00:42:47;21.63;;;13.65;;
3841;SDS011;1936;47.074;15.336;2022-12-05T00:44:52;25.85;;;12.73;;
3841;SDS011;1936;47.074;15.336;2022-12-05T00:46:56;15.35;;;11.75;;
3841;SDS011;1936;47.074;15.336;2022-12-05T00:48:59;17.92;;;12.10;;
3841;SDS011;1936;47.074;15.336;2022-12-05T00:51:04;22.88;;;12.57;;
3841;SDS011;1936;47.074;15.336;2022-12-05T00:53:09;28.95;;;13.95;;
3841;SDS011;1936;47.074;15.336;2022-12-05T00:55:13;18.33;;;12.95;;
3841;SDS011;1936;47.074;15.336;2022-12-05T00:57:16;23.05;;;13.38;;
3841;SDS011;1936;47.074;15.336;2022-12-05T00:59:21;19.98;;;13.20;;
3841;SDS011;1936;47.074;15.336;2022-12-05T01:01:26;30.60;;;13.75;;
3841;SDS011;1936;47.074;15.336;2022-12-05T01:03:30;17.85;;;11.50;;
3841;SDS011;1936;47.074;15.336;2022-12-05T01:05:34;22.17;;;13.95;;
3841;SDS011;1936;47.074;15.336;2022-12-05T01:07:37;17.90;;;12.10;;
3841;SDS011;1936;47.074;15.336;2022-12-05T01:09:41;19.55;;;13.75;;
3841;SDS011;1936;47.074;15.336;2022-12-05T01:11:44;21.00;;;14.00;;
3841;SDS011;1936;47.074;15.336;2022-12-05T01:13:47;22.88;;;13.95;;
3841;SDS011;1936;47.074;15.336;2022-12-05T01:15:53;25.85;;;13.68;;
3841;SDS011;1936;47.074;15.336;2022-12-05T01:17:57;23.45;;;13.25;;
3841;SDS011;1936;47.074;15.336;2022-12-05T01:20:00;30.45;;;14.18;;
3841;SDS011;1936;47.074;15.336;2022-12-05T01:22:04;25.38;;;15.98;;
3841;SDS011;1936;47.074;15.336;2022-12-05T01:24:07;21.45;;;14.15;;
3841;SDS011;1936;47.074;15.336;2022-12-05T01:26:12;30.40;;;14.52;;
3841;SDS011;1936;47.074;15.336;2022-12-05T01:28:19;25.52;;;14.68;;
3841;SDS011;1936;47.074;15.336;2022-12-05T01:30:23;22.52;;;13.75;;
3841;SDS011;1936;47.074;15.336;2022-12-05T01:32:27;23.52;;;14.27;;
3841;SDS011;1936;47.074;15.336;2022-12-05T01:34:31;27.23;;;16.58;;
3841;SDS011;1936;47.074;15.336;2022-12-05T01:36:34;28.25;;;16.23;;
3841;SDS011;1936;47.074;15.336;2022-12-05T01:38:39;34.95;;;15.13;;
3841;SDS011;1936;47.074;15.336;2022-12-05T01:40:44;34.45;;;14.77;;
3841;SDS011;1936;47.074;15.336;2022-12-05T01:42:47;20.05;;;14.25;;
3841;SDS011;1936;47.074;15.336;2022-12-05T01:45:04;24.70;;;14.93;;
3841;SDS011;1936;47.074;15.336;2022-12-05T01:47:10;63.20;;;15.13;;
3841;SDS011;1936;47.074;15.336;2022-12-05T01:49:15;19.13;;;12.25;;
3841;SDS011;1936;47.074;15.336;2022-12-05T01:51:21;33.67;;;11.57;;
3841;SDS011;1936;47.074;15.336;2022-12-05T01:53:25;55.35;;;14.80;;
3841;SDS011;1936;47.074;15.336;2022-12-05T01:55:30;21.55;;;14.30;;
3841;SDS011;1936;47.074;15.336;2022-12-05T01:57:35;21.38;;;13.52;;
3841;SDS011;1936;47.074;15.336;2022-12-05T01:59:40;20.35;;;13.25;;
3841;SDS011;1936;47.074;15.336;2022-12-05T02:01:45;20.90;;;12.40;;
3841;SDS011;1936;47.074;15.336;2022-12-05T02:03:50;18.33;;;13.27;;
3841;SDS011;1936;47.074;15.336;2022-12-05T02:05:58;18.58;;;12.68;;
3841;SDS011;1936;47.074;15.336;2022-12-05T02:08:04;19.95;;;12.95;;
3841;SDS011;1936;47.074;15.336;2022-12-05T02:10:09;20.40;;;13.88;;
3841;SDS011;1936;47.074;15.336;2022-12-05T02:12:12;27.00;;;13.68;;
3841;SDS011;1936;47.074;15.336;2022-12-05T02:14:19;28.45;;;15.15;;
3841;SDS011;1936;47.074;15.336;2022-12-05T02:16:33;21.17;;;13.95;;
3841;SDS011;1936;47.074;15.336;2022-12-05T02:18:47;19.23;;;13.32;;
3841;SDS011;1936;47.074;15.336;2022-12-05T02:21:03;18.58;;;12.90;;
3841;SDS011;1936;47.074;15.336;2022-12-05T02:28:54;19.70;;;13.90;;
3841;SDS011;1936;47.074;15.336;2022-12-05T02:31:19;21.35;;;14.30;;
3841;SDS011;1936;47.074;15.336;2022-12-05T02:33:29;23.17;;;12.63;;
3841;SDS011;1936;47.074;15.336;2022-12-05T02:35:39;15.88;;;11.35;;
3841;SDS011;1936;47.074;15.336;2022-12-05T02:37:50;22.92;;;11.77;;
3841;SDS011;1936;47.074;15.336;2022-12-05T02:40:02;22.02;;;12.43;;
3841;SDS011;1936;47.074;15.336;2022-12-05T02:42:12;20.27;;;13.38;;
3841;SDS011;1936;47.074;15.336;2022-12-05T02:44:23;19.77;;;12.55;;
3841;SDS011;1936;47.074;15.336;2022-12-05T02:46:34;17.70;;;11.25;;
3841;SDS011;1936;47.074;15.336;2022-12-05T02:48:40;22.30;;;12.48;;
3841;SDS011;1936;47.074;15.336;2022-12-05T02:50:47;28.30;;;13.35;;
3841;SDS011;1936;47.074;15.336;2022-12-05T02:52:52;30.77;;;15.80;;
3841;SDS011;1936;47.074;15.336;2022-12-05T02:55:00;27.17;;;14.27;;
3841;SDS011;1936;47.074;15.336;2022-12-05T02:57:05;32.92;;;14.75;;
3841;SDS011;1936;47.074;15.336;2022-12-05T02:59:10;19.35;;;13.35;;
3841;SDS011;1936;47.074;15.336;2022-12-05T03:01:17;27.98;;;14.55;;
3841;SDS011;1936;47.074;15.336;2022-12-05T03:03:24;21.77;;;13.90;;
3841;SDS011;1936;47.074;15.336;2022-12-05T03:05:30;24.60;;;13.68;;
3841;SDS011;1936;47.074;15.336;2022-12-05T03:07:40;20.60;;;13.55;;
3841;SDS011;1936;47.074;15.336;2022-12-05T03:09:49;24.60;;;14.40;;
3841;SDS011;1936;47.074;15.336;2022-12-05T03:11:58;28.05;;;16.05;;
3841;SDS011;1936;47.074;15.336;2022-12-05T03:14:10;31.80;;;14.73;;
3841;SDS011;1936;47.074;15.336;2022-12-05T03:16:17;30.75;;;14.63;;
3841;SDS011;1936;47.074;15.336;2022-12-05T03:18:27;37.95;;;15.10;;
3841;SDS011;1936;47.074;15.336;2022-12-05T03:20:33;47.17;;;15.02;;
3841;SDS011;1936;47.074;15.336;2022-12-05T03:22:40;32.30;;;12.43;;
3841;SDS011;1936;47.074;15.336;2022-12-05T03:24:47;119.65;;;21.33;;
3841;SDS011;1936;47.074;15.336;2022-12-05T03:26:54;82.63;;;20.35;;
3841;SDS011;1936;47.074;15.336;2022-12-05T03:29:13;37.17;;;15.52;;
3841;SDS011;1936;47.074;15.336;2022-12-05T03:31:25;91.18;;;21.88;;
3841;SDS011;1936;47.074;15.336;2022-12-05T03:33:39;73.15;;;19.90;;
3841;SDS011;1936;47.074;15.336;2022-12-05T03:35:47;64.80;;;17.38;;
3841;SDS011;1936;47.074;15.336;2022-12-05T03:38:02;78.70;;;20.58;;
3841;SDS011;1936;47.074;15.336;2022-12-05T03:40:11;27.60;;;14.43;;
3841;SDS011;1936;47.074;15.336;2022-12-05T03:42:25;39.50;;;16.08;;
3841;SDS011;1936;47.074;15.336;2022-12-05T03:44:33;28.05;;;14.55;;
3841;SDS011;1936;47.074;15.336;2022-12-05T03:46:45;24.13;;;13.73;;
3841;SDS011;1936;47.074;15.336;2022-12-05T03:48:57;20.88;;;13.82;;
3841;SDS011;1936;47.074;15.336;2022-12-05T03:51:07;28.58;;;15.70;;
3841;SDS011;1936;47.074;15.336;2022-12-05T03:53:16;25.77;;;14.80;;
3841;SDS011;1936;47.074;15.336;2022-12-05T03:55:24;25.63;;;14.80;;
3841;SDS011;1936;47.074;15.336;2022-12-05T03:57:32;23.77;;;14.75;;
3841;SDS011;1936;47.074;15.336;2022-12-05T03:59:40;29.58;;;14.20;;
3841;SDS011;1936;47.074;15.336;2022-12-05T04:01:46;27.80;;;15.30;;
3841;SDS011;1936;47.074;15.336;2022-12-05T04:03:53;23.98;;;14.13;;
3841;SDS011;1936;47.074;15.336;2022-12-05T04:06:00;22.88;;;14.20;;
3841;SDS011;1936;47.074;15.336;2022-12-05T04:08:06;26.25;;;13.85;;
3841;SDS011;1936;47.074;15.336;2022-12-05T04:10:15;18.90;;;12.43;;
3841;SDS011;1936;47.074;15.336;2022-12-05T04:12:23;19.35;;;13.05;;
3841;SDS011;1936;47.074;15.336;2022-12-05T04:14:31;17.20;;;10.20;;
3841;SDS011;1936;47.074;15.336;2022-12-05T04:16:39;18.77;;;12.68;;
3841;SDS011;1936;47.074;15.336;2022-12-05T04:19:04;18.30;;;11.68;;
3841;SDS011;1936;47.074;15.336;2022-12-05T04:21:12;22.85;;;12.63;;
3841;SDS011;1936;47.074;15.336;2022-12-05T04:23:35;18.70;;;11.32;;
3841;SDS011;1936;47.074;15.336;2022-12-05T04:25:49;17.63;;;11.55;;
3841;SDS011;1936;47.074;15.336;2022-12-05T04:28:05;17.02;;;10.38;;
3841;SDS011;1936;47.074;15.336;2022-12-05T04:30:22;15.45;;;9.52;;
3841;SDS011;1936;47.074;15.336;2022-12-05T04:32:29;19.50;;;9.68;;
3841;SDS011;1936;47.074;15.336;2022-12-05T04:34:38;15.98;;;10.63;;
3841;SDS011;1936;47.074;15.336;2022-12-05T04:36:48;15.32;;;10.00;;
3841;SDS011;1936;47.074;15.336;2022-12-05T04:38:57;15.35;;;9.95;;
3841;SDS011;1936;47.074;15.336;2022-12-05T04:41:06;16.50;;;10.30;;
3841;SDS011;1936;47.074;15.336;2022-12-05T04:43:14;14.10;;;10.10;;
3841;SDS011;1936;47.074;15.336;2022-12-05T04:45:20;14.05;;;8.43;;
3841;SDS011;1936;47.074;15.336;2022-12-05T04:47:27;16.38;;;9.25;;
3841;SDS011;1936;47.074;15.336;2022-12-05T04:49:34;14.40;;;9.13;;
3841;SDS011;1936;47.074;15.336;2022-12-05T04:51:39;15.07;;;11.05;;
3841;SDS011;1936;47.074;15.336;2022-12-05T04:53:46;14.82;;;9.38;;
3841;SDS011;1936;47.074;15.336;2022-12-05T04:55:55;11.63;;;8.18;;
3841;SDS011;1936;47.074;15.336;2022-12-05T04:58:03;13.57;;;8.80;;
3841;SDS011;1936;47.074;15.336;2022-12-05T05:00:09;13.32;;;8.95;;
3841;SDS011;1936;47.074;15.336;2022-12-05T05:02:14;14.80;;;9.18;;
3841;SDS011;1936;47.074;15.336;2022-12-05T05:04:24;13.93;;;9.48;;
3841;SDS011;1936;47.074;15.336;2022-12-05T05:06:31;15.13;;;10.50;;
3841;SDS011;1936;47.074;15.336;2022-12-05T05:08:36;12.55;;;9.52;;
3841;SDS011;1936;47.074;15.336;2022-12-05T05:10:51;17.30;;;11.20;;
3841;SDS011;1936;47.074;15.336;2022-12-05T05:13:02;15.00;;;9.40;;
3841;SDS011;1936;47.074;15.336;2022-12-05T05:15:05;17.58;;;10.65;;
3841;SDS011;1936;47.074;15.336;2022-12-05T05:17:09;16.52;;;9.75;;
3841;SDS011;1936;47.074;15.336;2022-12-05T05:19:13;15.13;;;10.20;;
3841;SDS011;1936;47.074;15.336;2022-12-05T05:21:17;20.60;;;12.48;;
3841;SDS011;1936;47.074;15.336;2022-12-05T05:23:22;14.90;;;11.02;;
3841;SDS011;1936;47.074;15.336;2022-12-05T05:25:27;16.88;;;10.18;;
3841;SDS011;1936;47.074;15.336;2022-12-05T05:27:30;15.77;;;9.48;;
3841;SDS011;1936;47.074;15.336;2022-12-05T05:29:34;14.40;;;9.57;;
3841;SDS011;1936;47.074;15.336;2022-12-05T05:31:37;14.77;;;9.30;;
3841;SDS011;1936;47.074;15.336;2022-12-05T05:33:41;13.88;;;9.30;;
3841;SDS011;1936;47.074;15.336;2022-12-05T05:35:45;15.25;;;9.07;;
3841;SDS011;1936;47.074;15.336;2022-12-05T05:37:49;12.15;;;8.32;;
3841;SDS011;1936;47.074;15.336;2022-12-05T05:39:52;13.00;;;8.73;;
3841;SDS011;1936;47.074;15.336;2022-12-05T05:41:57;9.85;;;7.53;;
3841;SDS011;1936;47.074;15.336;2022-12-05T05:44:01;13.95;;;8.82;;
3841;SDS011;1936;47.074;15.336;2022-12-05T05:46:05;8.32;;;7.10;;
3841;SDS011;1936;47.074;15.336;2022-12-05T05:48:08;13.23;;;8.10;;
3841;SDS011;1936;47.074;15.336;2022-12-05T05:50:13;9.80;;;7.70;;
3841;SDS011;1936;47.074;15.336;2022-12-05T05:52:22;10.95;;;8.23;;
3841;SDS011;1936;47.074;15.336;2022-12-05T05:54:25;11.25;;;7.57;;
3841;SDS011;1936;47.074;15.336;2022-12-05T05:56:28;12.80;;;8.68;;
3841;SDS011;1936;47.074;15.336;2022-12-05T05:58:33;12.60;;;8.90;;
3841;SDS011;1936;47.074;15.336;2022-12-05T06:00:37;14.00;;;8.45;;
3841;SDS011;1936;47.074;15.336;2022-12-05T06:02:40;11.60;;;8.63;;
3841;SDS011;1936;47.074;15.336;2022-12-05T06:04:44;12.10;;;8.02;;
3841;SDS011;1936;47.074;15.336;2022-12-05T06:06:47;12.60;;;8.82;;
3841;SDS011;1936;47.074;15.336;2022-12-05T06:08:51;15.75;;;9.77;;
3841;SDS011;1936;47.074;15.336;2022-12-05T06:10:54;12.70;;;8.95;;
3841;SDS011;1936;47.074;15.336;2022-12-05T06:12:58;15.20;;;10.23;;
3841;SDS011;1936;47.074;15.336;2022-12-05T06:15:04;14.90;;;10.13;;
3841;SDS011;1936;47.074;15.336;2022-12-05T06:17:08;15.85;;;10.65;;
3841;SDS011;1936;47.074;15.336;2022-12-05T06:19:12;14.43;;;9.27;;
3841;SDS011;1936;47.074;15.336;2022-12-05T06:21:15;13.15;;;9.65;;
3841;SDS011;1936;47.074;15.336;2022-12-05T06:23:19;15.30;;;9.10;;
3841;SDS011;1936;47.074;15.336;2022-12-05T06:25:22;10.52;;;8.63;;
3841;SDS011;1936;47.074;15.336;2022-12-05T06:27:26;13.35;;;8.88;;
3841;SDS011;1936;47.074;15.336;2022-12-05T06:29:32;15.48;;;9.98;;
3841;SDS011;1936;47.074;15.336;2022-12-05T06:31:37;11.07;;;8.57;;
3841;SDS011;1936;47.074;15.336;2022-12-05T06:33:40;10.77;;;8.32;;
3841;SDS011;1936;47.074;15.336;2022-12-05T06:35:44;11.75;;;8.73;;
3841;SDS011;1936;47.074;15.336;2022-12-05T06:37:48;11.43;;;8.10;;
3841;SDS011;1936;47.074;15.336;2022-12-05T06:39:51;14.20;;;8.27;;
3841;SDS011;1936;47.074;15.336;2022-12-05T06:41:54;10.98;;;8.23;;
3841;SDS011;1936;47.074;15.336;2022-12-05T06:43:58;12.07;;;8.15;;
3841;SDS011;1936;47.074;15.336;2022-12-05T06:46:03;10.70;;;8.15;;
3841;SDS011;1936;47.074;15.336;2022-12-05T06:48:08;12.65;;;9.43;;
3841;SDS011;1936;47.074;15.336;2022-12-05T06:50:12;9.75;;;8.07;;
3841;SDS011;1936;47.074;15.336;2022-12-05T06:52:15;14.55;;;9.00;;
3841;SDS011;1936;47.074;15.336;2022-12-05T06:54:19;13.00;;;9.93;;
3841;SDS011;1936;47.074;15.336;2022-12-05T06:56:22;14.95;;;9.35;;
3841;SDS011;1936;47.074;15.336;2022-12-05T06:58:26;14.43;;;9.60;;
3841;SDS011;1936;47.074;15.336;2022-12-05T07:00:30;11.07;;;8.73;;
3841;SDS011;1936;47.074;15.336;2022-12-05T07:02:50;12.18;;;8.85;;
3841;SDS011;1936;47.074;15.336;2022-12-05T07:04:55;14.48;;;10.70;;
3841;SDS011;1936;47.074;15.336;2022-12-05T07:06:58;13.57;;;9.25;;
3841;SDS011;1936;47.074;15.336;2022-12-05T07:09:03;14.55;;;10.35;;
3841;SDS011;1936;47.074;15.336;2022-12-05T07:11:07;14.55;;;10.73;;
3841;SDS011;1936;47.074;15.336;2022-12-05T07:13:10;15.80;;;11.35;;
3841;SDS011;1936;47.074;15.336;2022-12-05T07:15:16;15.85;;;10.38;;
3841;SDS011;1936;47.074;15.336;2022-12-05T07:17:20;15.20;;;9.80;;
3841;SDS011;1936;47.074;15.336;2022-12-05T07:19:23;13.02;;;8.85;;
3841;SDS011;1936;47.074;15.336;2022-12-05T07:21:29;15.00;;;9.80;;
3841;SDS011;1936;47.074;15.336;2022-12-05T07:23:33;13.75;;;9.85;;
3841;SDS011;1936;47.074;15.336;2022-12-05T07:25:37;18.48;;;10.10;;
3841;SDS011;1936;47.074;15.336;2022-12-05T07:27:41;14.13;;;9.52;;
3841;SDS011;1936;47.074;15.336;2022-12-05T07:29:45;16.13;;;11.35;;
3841;SDS011;1936;47.074;15.336;2022-12-05T07:31:48;15.50;;;11.13;;
3841;SDS011;1936;47.074;15.336;2022-12-05T07:33:51;13.95;;;10.23;;
3841;SDS011;1936;47.074;15.336;2022-12-05T07:35:58;16.23;;;10.38;;
3841;SDS011;1936;47.074;15.336;2022-12-05T07:38:03;15.20;;;11.15;;
3841;SDS011;1936;47.074;15.336;2022-12-05T07:40:07;13.85;;;10.55;;
3841;SDS011;1936;47.074;15.336;2022-12-05T07:42:11;16.02;;;10.35;;
3841;SDS011;1936;47.074;15.336;2022-12-05T07:44:15;13.88;;;9.77;;
3841;SDS011;1936;47.074;15.336;2022-12-05T07:46:18;14.75;;;10.82;;
3841;SDS011;1936;47.074;15.336;2022-12-05T07:48:22;15.00;;;10.65;;
3841;SDS011;1936;47.074;15.336;2022-12-05T07:50:26;15.50;;;10.95;;
3841;SDS011;1936;47.074;15.336;2022-12-05T07:52:29;14.77;;;10.60;;
3841;SDS011;1936;47.074;15.336;2022-12-05T07:54:34;11.52;;;10.05;;
3841;SDS011;1936;47.074;15.336;2022-12-05T07:56:37;13.07;;;10.70;;
3841;SDS011;1936;47.074;15.336;2022-12-05T07:58:48;14.85;;;10.68;;
3841;SDS011;1936;47.074;15.336;2022-12-05T08:00:51;12.20;;;9.75;;
3841;SDS011;1936;47.074;15.336;2022-12-05T08:02:55;18.52;;;11.15;;
3841;SDS011;1936;47.074;15.336;2022-12-05T08:05:03;14.15;;;10.15;;
3841;SDS011;1936;47.074;15.336;2022-12-05T08:07:08;13.10;;;10.07;;
3841;SDS011;1936;47.074;15.336;2022-12-05T08:09:11;16.00;;;10.90;;
3841;SDS011;1936;47.074;15.336;2022-12-05T08:11:17;14.80;;;10.60;;
3841;SDS011;1936;47.074;15.336;2022-12-05T08:13:23;15.88;;;12.40;;
3841;SDS011;1936;47.074;15.336;2022-12-05T08:15:27;11.98;;;10.30;;
3841;SDS011;1936;47.074;15.336;2022-12-05T08:17:30;14.45;;;11.43;;
3841;SDS011;1936;47.074;15.336;2022-12-05T08:19:33;15.48;;;10.75;;
3841;SDS011;1936;47.074;15.336;2022-12-05T08:21:37;14.18;;;11.52;;
3841;SDS011;1936;47.074;15.336;2022-12-05T08:23:40;14.20;;;10.98;;
3841;SDS011;1936;47.074;15.336;2022-12-05T08:25:44;14.88;;;11.93;;
3841;SDS011;1936;47.074;15.336;2022-12-05T08:27:49;14.63;;;10.77;;
3841;SDS011;1936;47.074;15.336;2022-12-05T08:29:52;12.60;;;10.80;;
3841;SDS011;1936;47.074;15.336;2022-12-05T08:31:56;15.00;;;12.05;;
3841;SDS011;1936;47.074;15.336;2022-12-05T08:34:00;17.38;;;12.13;;
3841;SDS011;1936;47.074;15.336;2022-12-05T08:36:04;15.43;;;11.02;;
3841;SDS011;1936;47.074;15.336;2022-12-05T08:38:09;16.42;;;12.70;;
3841;SDS011;1936;47.074;15.336;2022-12-05T08:40:12;20.48;;;12.00;;
3841;SDS011;1936;47.074;15.336;2022-12-05T08:42:15;16.60;;;12.23;;
3841;SDS011;1936;47.074;15.336;2022-12-05T08:44:20;13.93;;;12.30;;
3841;SDS011;1936;47.074;15.336;2022-12-05T08:46:23;14.20;;;12.32;;
3841;SDS011;1936;47.074;15.336;2022-12-05T08:48:28;16.85;;;12.32;;
3841;SDS011;1936;47.074;15.336;2022-12-05T08:50:32;13.00;;;10.55;;
3841;SDS011;1936;47.074;15.336;2022-12-05T08:52:36;16.00;;;12.05;;
3841;SDS011;1936;47.074;15.336;2022-12-05T08:54:39;13.10;;;10.27;;
3841;SDS011;1936;47.074;15.336;2022-12-05T08:56:42;16.95;;;11.48;;
3841;SDS011;1936;47.074;15.336;2022-12-05T08:58:46;16.95;;;12.25;;
3841;SDS011;1936;47.074;15.336;2022-12-05T09:00:51;14.75;;;10.57;;
3841;SDS011;1936;47.074;15.336;2022-12-05T09:02:54;11.13;;;9.80;;
3841;SDS011;1936;47.074;15.336;2022-12-05T09:04:58;11.18;;;9.88;;
3841;SDS011;1936;47.074;15.336;2022-12-05T09:07:21;11.95;;;9.90;;
3841;SDS011;1936;47.074;15.336;2022-12-05T09:09:24;13.05;;;10.38;;
3841;SDS011;1936;47.074;15.336;2022-12-05T09:11:29;11.70;;;9.85;;
3841;SDS011;1936;47.074;15.336;2022-12-05T09:13:33;13.40;;;10.15;;
3841;SDS011;1936;47.074;15.336;2022-12-05T09:15:37;13.63;;;10.68;;
3841;SDS011;1936;47.074;15.336;2022-12-05T09:17:42;13.63;;;10.70;;
3841;SDS011;1936;47.074;15.336;2022-12-05T09:19:49;11.60;;;9.27;;
3841;SDS011;1936;47.074;15.336;2022-12-05T09:21:53;13.88;;;11.40;;
3841;SDS011;1936;47.074;15.336;2022-12-05T09:23:58;13.48;;;9.93;;
3841;SDS011;1936;47.074;15.336;2022-12-05T09:26:01;13.68;;;11.00;;
3841;SDS011;1936;47.074;15.336;2022-12-05T09:28:05;12.98;;;10.70;;
3841;SDS011;1936;47.074;15.336;2022-12-05T09:30:09;13.45;;;10.60;;
3841;SDS011;1936;47.074;15.336;2022-12-05T09:32:13;12.60;;;11.40;;
3841;SDS011;1936;47.074;15.336;2022-12-05T09:34:17;11.68;;;9.75;;
3841;SDS011;1936;47.074;15.336;2022-12-05T09:36:22;11.10;;;9.80;;
3841;SDS011;1936;47.074;15.336;2022-12-05T09:38:26;14.57;;;11.50;;
3841;SDS011;1936;47.074;15.336;2022-12-05T09:40:30;13.52;;;8.77;;
3841;SDS011;1936;47.074;15.336;2022-12-05T09:45:17;14.60;;;10.63;;
3841;SDS011;1936;47.074;15.336;2022-12-05T09:47:31;14.93;;;9.60;;
3841;SDS011;1936;47.074;15.336;2022-12-05T09:49:44;12.88;;;10.00;;
3841;SDS011;1936;47.074;15.336;2022-12-05T09:51:52;12.57;;;11.27;;
3841;SDS011;1936;47.074;15.336;2022-12-05T09:53:57;11.48;;;9.88;;
3841;SDS011;1936;47.074;15.336;2022-12-05T09:56:01;12.02;;;10.75;;
3841;SDS011;1936;47.074;15.336;2022-12-05T09:58:14;11.30;;;9.93;;
3841;SDS011;1936;47.074;15.336;2022-12-05T10:00:22;11.55;;;10.27;;
3841;SDS011;1936;47.074;15.336;2022-12-05T10:02:35;11.07;;;9.93;;
3841;SDS011;1936;47.074;15.336;2022-12-05T10:04:50;11.60;;;9.80;;
3841;SDS011;1936;47.074;15.336;2022-12-05T10:07:02;12.95;;;11.05;;
3841;SDS011;1936;47.074;15.336;2022-12-05T10:09:20;14.65;;;12.68;;
3841;SDS011;1936;47.074;15.336;2022-12-05T10:11:45;16.08;;;12.27;;
3841;SDS011;1936;47.074;15.336;2022-12-05T10:13:54;15.32;;;12.10;;
3841;SDS011;1936;47.074;15.336;2022-12-05T10:16:06;17.60;;;13.95;;
3841;SDS011;1936;47.074;15.336;2022-12-05T10:18:16;13.35;;;11.30;;
3841;SDS011;1936;47.074;15.336;2022-12-05T10:20:31;16.08;;;11.60;;
3841;SDS011;1936;47.074;15.336;2022-12-05T10:22:38;17.98;;;13.85;;
3841;SDS011;1936;47.074;15.336;2022-12-05T10:24:45;17.52;;;14.18;;
3841;SDS011;1936;47.074;15.336;2022-12-05T10:26:55;17.73;;;12.98;;
3841;SDS011;1936;47.074;15.336;2022-12-05T10:29:07;14.88;;;12.35;;
3841;SDS011;1936;47.074;15.336;2022-12-05T10:31:23;17.05;;;14.27;;
3841;SDS011;1936;47.074;15.336;2022-12-05T10:33:32;14.25;;;12.13;;
3841;SDS011;1936;47.074;15.336;2022-12-05T10:35:41;15.20;;;12.65;;
3841;SDS011;1936;47.074;15.336;2022-12-05T10:37:46;15.38;;;12.73;;
3841;SDS011;1936;47.074;15.336;2022-12-05T10:39:58;13.13;;;11.65;;
3841;SDS011;1936;47.074;15.336;2022-12-05T10:42:01;16.73;;;13.63;;
3841;SDS011;1936;47.074;15.336;2022-12-05T10:44:06;13.60;;;12.13;;
3841;SDS011;1936;47.074;15.336;2022-12-05T10:46:10;12.85;;;11.50;;
3841;SDS011;1936;47.074;15.336;2022-12-05T10:48:18;13.60;;;12.07;;
3841;SDS011;1936;47.074;15.336;2022-12-05T10:50:23;15.73;;;13.25;;
3841;SDS011;1936;47.074;15.336;2022-12-05T10:52:32;22.90;;;11.87;;
3841;SDS011;1936;47.074;15.336;2022-12-05T10:54:39;15.70;;;12.20;;
3841;SDS011;1936;47.074;15.336;2022-12-05T10:56:46;19.03;;;13.30;;
3841;SDS011;1936;47.074;15.336;2022-12-05T10:58:53;12.82;;;11.40;;
3841;SDS011;1936;47.074;15.336;2022-12-05T11:01:05;14.30;;;12.15;;
3841;SDS011;1936;47.074;15.336;2022-12-05T11:05:39;13.05;;;11.38;;
3841;SDS011;1936;47.074;15.336;2022-12-05T11:07:46;12.77;;;11.03;;
3841;SDS011;1936;47.074;15.336;2022-12-05T11:09:50;14.02;;;11.23;;
3841;SDS011;1936;47.074;15.336;2022-12-05T11:14:20;14.50;;;12.18;;
3841;SDS011;1936;47.074;15.336;2022-12-05T11:16:26;12.82;;;11.35;;
3841;SDS011;1936;47.074;15.336;2022-12-05T11:18:33;19.35;;;14.57;;
3841;SDS011;1936;47.074;15.336;2022-12-05T11:20:38;24.33;;;18.45;;
3841;SDS011;1936;47.074;15.336;2022-12-05T11:22:42;22.00;;;16.58;;
3841;SDS011;1936;47.074;15.336;2022-12-05T11:24:50;21.05;;;17.45;;
3841;SDS011;1936;47.074;15.336;2022-12-05T11:26:54;22.00;;;16.95;;
3841;SDS011;1936;47.074;15.336;2022-12-05T11:28:57;20.63;;;15.43;;
3841;SDS011;1936;47.074;15.336;2022-12-05T11:31:02;22.73;;;17.70;;
3841;SDS011;1936;47.074;15.336;2022-12-05T11:33:18;23.73;;;17.50;;
3841;SDS011;1936;47.074;15.336;2022-12-05T11:35:24;20.35;;;17.17;;
3841;SDS011;1936;47.074;15.336;2022-12-05T11:37:28;19.45;;;16.25;;
3841;SDS011;1936;47.074;15.336;2022-12-05T11:39:35;24.27;;;16.75;;
3841;SDS011;1936;47.074;15.336;2022-12-05T11:44:22;22.23;;;17.35;;
3841;SDS011;1936;47.074;15.336;2022-12-05T11:46:35;24.85;;;17.05;;
3841;SDS011;1936;47.074;15.336;2022-12-05T11:48:51;23.35;;;17.92;;
3841;SDS011;1936;47.074;15.336;2022-12-05T11:51:08;19.10;;;15.70;;
3841;SDS011;1936;47.074;15.336;2022-12-05T11:53:25;22.35;;;17.60;;
3841;SDS011;1936;47.074;15.336;2022-12-05T11:55:49;22.55;;;19.17;;
3841;SDS011;1936;47.074;15.336;2022-12-05T12:00:32;27.02;;;17.30;;
3841;SDS011;1936;47.074;15.336;2022-12-05T12:05:17;21.93;;;16.13;;
3841;SDS011;1936;47.074;15.336;2022-12-05T12:07:32;24.10;;;18.40;;
3841;SDS011;1936;47.074;15.336;2022-12-05T12:09:59;20.10;;;16.83;;
3841;SDS011;1936;47.074;15.336;2022-12-05T12:12:16;26.00;;;16.53;;
3841;SDS011;1936;47.074;15.336;2022-12-05T12:14:29;21.92;;;16.33;;
3841;SDS011;1936;47.074;15.336;2022-12-05T12:16:44;23.20;;;16.07;;
3841;SDS011;1936;47.074;15.336;2022-12-05T12:19:01;22.37;;;15.73;;
3841;SDS011;1936;47.074;15.336;2022-12-05T12:21:16;19.20;;;16.05;;
3841;SDS011;1936;47.074;15.336;2022-12-05T12:23:24;22.58;;;17.00;;
3841;SDS011;1936;47.074;15.336;2022-12-05T12:25:46;19.65;;;14.30;;
3841;SDS011;1936;47.074;15.336;2022-12-05T12:28:13;22.00;;;15.87;;
3841;SDS011;1936;47.074;15.336;2022-12-05T12:30:26;20.50;;;16.30;;
3841;SDS011;1936;47.074;15.336;2022-12-05T12:32:41;19.70;;;15.63;;
3841;SDS011;1936;47.074;15.336;2022-12-05T12:37:39;16.63;;;13.50;;
3841;SDS011;1936;47.074;15.336;2022-12-05T12:39:53;26.15;;;16.83;;
3841;SDS011;1936;47.074;15.336;2022-12-05T12:42:09;24.03;;;16.10;;
3841;SDS011;1936;47.074;15.336;2022-12-05T12:44:32;24.50;;;19.00;;
3841;SDS011;1936;47.074;15.336;2022-12-05T12:47:03;24.47;;;18.77;;
3841;SDS011;1936;47.074;15.336;2022-12-05T12:49:15;31.60;;;18.03;;
3841;SDS011;1936;47.074;15.336;2022-12-05T12:51:35;23.42;;;16.58;;
3841;SDS011;1936;47.074;15.336;2022-12-05T12:56:46;28.48;;;20.60;;
3841;SDS011;1936;47.074;15.336;2022-12-05T12:58:58;26.10;;;18.95;;
3841;SDS011;1936;47.074;15.336;2022-12-05T13:01:12;30.23;;;19.38;;
3841;SDS011;1936;47.074;15.336;2022-12-05T13:03:26;27.55;;;18.75;;
3841;SDS011;1936;47.074;15.336;2022-12-05T13:05:40;28.87;;;18.13;;